Time;durP1;ratioP1;P1;durP2;ratioP2;P2;SDS_P1;SDS_P2;PMS_P1;PMS_P2;Temp;Humidity;BMP_temperature;BMP_pressure;BME280_temperature;BME280_humidity;BME280_pressure;Samples;Min_cycle;Max_cycle;Signal;HPM_P1;HPM_P2
2021/08/26 00:09:51;;;;;;;48.80;45.50;;;;;;;18.18;100.00;102248.50;1971739;73;31044;-73
2021/08/26 00:15:16;;;;;;;48.37;44.97;;;;;;;18.22;100.00;102236.09;1971902;73;31469;-69
2021/08/26 00:20:42;;;;;;;48.03;44.67;;;;;;;18.26;100.00;102230.70;1971148;71;31060;-73
2021/08/26 00:26:06;;;;;;;50.97;47.57;;;;;;;18.24;100.00;102223.95;1971864;73;30959;-72
2021/08/26 00:31:31;;;;;;;51.30;48.00;;;;;;;18.18;100.00;102218.16;1971829;73;30979;-72
2021/08/26 00:36:56;;;;;;;51.33;47.77;;;;;;;18.12;100.00;102207.54;1971623;73;30957;-69
2021/08/26 00:42:21;;;;;;;51.17;47.77;;;;;;;18.23;100.00;102211.62;1971616;73;33043;-69
2021/08/26 00:47:48;;;;;;;52.40;49.00;;;;;;;18.17;100.00;102197.62;1971810;73;31489;-71
2021/08/26 00:53:32;;;;;;;53.17;49.63;;;;;;;18.12;100.00;102203.31;2016018;71;31430;-69
2021/08/26 00:59:00;;;;;;;50.63;47.23;;;;;;;18.10;100.00;102195.73;1971730;73;31041;-73
2021/08/26 01:04:29;;;;;;;53.33;49.53;;;;;;;18.18;100.00;102197.06;1971700;73;31060;-70
2021/08/26 01:07:03;;;;;;;52.60;49.10;;;;;;;18.10;100.00;102198.55;1934492;74;24128;-69
2021/08/26 01:09:38;;;;;;;51.70;48.17;;;;;;;18.11;100.00;102197.98;1934582;74;24180;-73
2021/08/26 01:15:06;;;;;;;51.83;48.30;;;;;;;18.08;100.00;102192.98;1971896;73;33484;-70
2021/08/26 01:20:30;;;;;;;54.10;50.50;;;;;;;18.09;100.00;102184.25;1971705;73;31048;-70
2021/08/26 01:25:56;;;;;;;55.77;51.77;;;;;;;18.11;100.00;102181.11;1972065;73;31563;-73
2021/08/26 01:31:22;;;;;;;53.40;49.70;;;;;;;18.11;100.00;102178.30;1971865;73;33488;-73
2021/08/26 01:36:54;;;;;;;52.07;48.27;;;;;;;18.09;100.00;102186.22;1971724;73;30947;-69
2021/08/26 01:42:18;;;;;;;52.57;48.77;;;;;;;18.12;100.00;102179.41;1971888;73;31496;-69
2021/08/26 01:48:02;;;;;;;53.03;49.33;;;;;;;18.10;100.00;102183.08;2016151;71;30853;-69
2021/08/26 01:53:29;;;;;;;51.03;47.43;;;;;;;18.14;100.00;102184.15;1971858;73;33466;-70
2021/08/26 01:58:53;;;;;;;51.57;48.20;;;;;;;18.11;100.00;102186.17;1971798;72;33459;-69
2021/08/26 02:04:17;;;;;;;49.90;46.63;;;;;;;18.19;100.00;102184.64;1971818;73;31609;-73
2021/08/26 02:09:42;;;;;;;48.07;44.87;;;;;;;18.18;100.00;102179.59;1971727;73;30983;-69
2021/08/26 02:15:09;;;;;;;49.67;46.50;;;;;;;18.12;100.00;102181.39;1971850;73;30963;-73
2021/08/26 02:20:34;;;;;;;47.27;44.27;;;;;;;18.11;100.00;102180.55;1971757;73;30966;-69
2021/08/26 02:25:59;;;;;;;45.53;42.73;;;;;;;18.14;100.00;102187.56;1971834;73;33586;-70
2021/08/26 02:31:23;;;;;;;48.40;45.40;;;;;;;18.15;100.00;102168.95;1971854;73;31416;-70
2021/08/26 02:36:48;;;;;;;48.00;45.00;;;;;;;18.02;100.00;102174.49;1971867;73;31445;-69
2021/08/26 02:42:12;;;;;;;47.60;44.70;;;;;;;18.08;100.00;102179.76;1972079;73;31527;-73
2021/08/26 02:47:43;;;;;;;47.73;44.83;;;;;;;17.99;100.00;102173.70;1971926;73;31040;-73
2021/08/26 02:53:07;;;;;;;45.53;42.53;;;;;;;18.03;100.00;102174.20;1971842;73;33489;-73
2021/08/26 02:58:38;;;;;;;46.73;43.77;;;;;;;17.95;100.00;102174.05;1971920;73;31464;-73
2021/08/26 03:04:02;;;;;;;47.60;44.70;;;;;;;17.99;100.00;102178.76;1971832;73;31500;-69
2021/08/26 03:09:27;;;;;;;49.53;46.33;;;;;;;17.92;100.00;102174.66;1971811;73;33464;-72
2021/08/26 03:14:52;;;;;;;46.83;44.03;;;;;;;17.85;100.00;102167.98;1971675;73;31114;-73
2021/08/26 03:20:17;;;;;;;48.53;45.63;;;;;;;17.95;100.00;102164.20;1971641;73;31022;-70
2021/08/26 03:25:42;;;;;;;50.70;47.63;;;;;;;17.96;100.00;102161.66;1971856;73;31500;-73
2021/08/26 03:31:06;;;;;;;48.80;45.90;;;;;;;17.92;100.00;102159.20;1971777;73;30975;-73
2021/08/26 03:36:31;;;;;;;48.53;45.53;;;;;;;17.91;100.00;102162.57;1971721;73;31125;-73
2021/08/26 03:41:55;;;;;;;47.57;44.57;;;;;;;17.95;100.00;102159.98;1971860;73;31523;-73
2021/08/26 03:47:20;;;;;;;49.03;46.03;;;;;;;17.80;100.00;102157.41;1938391;74;31501;-70
2021/08/26 03:52:45;;;;;;;49.33;46.23;;;;;;;17.94;100.00;102151.28;1971675;73;31031;-69
2021/08/26 03:58:09;;;;;;;49.20;46.10;;;;;;;17.91;100.00;102151.89;1971651;73;30984;-73
2021/08/26 04:03:34;;;;;;;50.90;47.60;;;;;;;17.87;100.00;102152.23;1971968;73;33460;-72
2021/08/26 04:08:59;;;;;;;49.10;46.00;;;;;;;17.86;100.00;102148.58;1971980;73;30971;-68
2021/08/26 04:14:23;;;;;;;50.17;46.77;;;;;;;17.88;100.00;102151.94;1971820;73;30935;-70
2021/08/26 04:19:48;;;;;;;48.67;45.57;;;;;;;17.87;100.00;102143.23;1971759;73;31094;-73
2021/08/26 04:25:13;;;;;;;51.30;48.00;;;;;;;17.88;100.00;102151.94;1971741;72;31028;-70
2021/08/26 04:30:37;;;;;;;52.67;49.17;;;;;;;17.79;100.00;102147.29;1971840;73;30953;-71
2021/08/26 04:36:08;;;;;;;51.47;48.13;;;;;;;17.74;100.00;102145.38;1971818;73;33022;-70
2021/08/26 04:41:32;;;;;;;53.20;49.53;;;;;;;17.81;100.00;102147.24;1971663;73;31025;-73
2021/08/26 04:46:57;;;;;;;53.27;49.67;;;;;;;17.82;100.00;102134.03;1971643;73;30970;-73
2021/08/26 04:52:22;;;;;;;52.40;48.80;;;;;;;17.81;100.00;102147.80;1971889;73;33495;-69
2021/08/26 04:57:46;;;;;;;50.10;46.80;;;;;;;17.71;100.00;102144.59;1971741;73;31042;-73
2021/08/26 05:03:11;;;;;;;50.50;46.80;;;;;;;17.62;100.00;102147.80;1971759;73;30995;-70
2021/08/26 05:08:36;;;;;;;49.77;46.23;;;;;;;17.68;100.00;102151.63;1971726;73;30963;-73
2021/08/26 05:14:00;;;;;;;47.80;44.70;;;;;;;17.66;100.00;102164.33;1971716;73;30966;-73
2021/08/26 05:19:27;;;;;;;46.07;42.90;;;;;;;17.66;100.00;102159.55;1971964;73;31520;-68
2021/08/26 05:24:52;;;;;;;46.37;43.27;;;;;;;17.73;100.00;102164.78;1971745;73;30966;-74
2021/08/26 05:30:17;;;;;;;48.17;45.27;;;;;;;17.74;100.00;102167.30;1971766;73;33465;-69
2021/08/26 05:35:41;;;;;;;46.83;44.00;;;;;;;17.68;100.00;102163.44;1971698;73;31024;-70
2021/08/26 05:41:05;;;;;;;46.47;43.53;;;;;;;17.73;100.00;102172.65;1971883;73;31105;-70
2021/08/26 05:46:30;;;;;;;46.40;43.50;;;;;;;17.68;100.00;102174.11;1971857;73;31482;-70
2021/08/26 05:51:56;;;;;;;45.40;42.67;;;;;;;17.64;100.00;102171.64;1971811;73;30993;-70
2021/08/26 05:57:21;;;;;;;45.47;42.77;;;;;;;17.65;100.00;102170.51;1971798;73;33529;-73
2021/08/26 06:02:45;;;;;;;45.67;42.97;;;;;;;17.42;100.00;102188.73;1971665;73;30977;-72
2021/08/26 06:08:10;;;;;;;44.90;42.20;;;;;;;17.22;100.00;102195.43;1971881;73;31481;-70
2021/08/26 06:13:34;;;;;;;44.00;41.20;;;;;;;17.32;100.00;102194.49;1971705;73;33008;-70
2021/08/26 06:18:59;;;;;;;44.73;42.03;;;;;;;17.27;100.00;102192.02;1971695;72;31107;-70
2021/08/26 06:24:23;;;;;;;44.83;42.23;;;;;;;17.40;100.00;102182.03;1971959;73;31457;-72
2021/08/26 06:29:48;;;;;;;45.83;43.03;;;;;;;17.45;100.00;102186.20;1971931;73;31509;-70
2021/08/26 06:35:12;;;;;;;45.87;43.17;;;;;;;17.36;100.00;102186.58;1971946;73;31094;-70
2021/08/26 06:40:38;;;;;;;42.87;40.27;;;;;;;17.46;100.00;102190.66;1971795;73;31134;-71
2021/08/26 06:46:02;;;;;;;42.93;40.30;;;;;;;17.53;100.00;102191.15;1971911;73;31601;-72
2021/08/26 06:51:27;;;;;;;43.00;40.40;;;;;;;17.55;100.00;102187.45;1971853;73;33425;-70
2021/08/26 06:56:51;;;;;;;41.30;38.80;;;;;;;17.59;100.00;102190.53;1971781;73;32984;-70
2021/08/26 07:02:16;;;;;;;42.83;40.43;;;;;;;17.60;100.00;102179.00;1971962;73;31042;-71
2021/08/26 07:07:40;;;;;;;42.50;40.10;;;;;;;17.57;100.00;102195.03;1971871;73;31447;-72
2021/08/26 07:13:06;;;;;;;42.73;40.03;;;;;;;17.38;100.00;102197.50;1971876;73;30991;-71
2021/08/26 07:18:30;;;;;;;42.87;40.07;;;;;;;17.43;100.00;102207.28;1971837;73;30961;-72
2021/08/26 07:23:55;;;;;;;40.60;38.30;;;;;;;17.64;100.00;102207.33;1971643;73;31100;-70
2021/08/26 07:29:19;;;;;;;42.50;39.87;;;;;;;17.66;100.00;102215.75;1971605;73;32973;-70
2021/08/26 07:34:44;;;;;;;38.13;35.83;;;;;;;17.76;100.00;102202.12;1971712;73;31023;-69
2021/08/26 07:40:12;;;;;;;33.37;31.53;;;;;;;17.68;100.00;102207.00;1971742;73;30971;-70
2021/08/26 07:45:37;;;;;;;33.17;31.13;;;;;;;17.85;100.00;102205.09;1971647;73;32897;-70
2021/08/26 07:51:03;;;;;;;34.67;32.77;;;;;;;17.89;100.00;102207.00;1971884;73;30935;-72
2021/08/26 07:56:31;;;;;;;33.93;31.93;;;;;;;17.93;100.00;102203.02;1971609;73;32891;-72
2021/08/26 08:02:00;;;;;;;33.30;31.33;;;;;;;17.97;100.00;102206.33;1971658;73;32978;-70
2021/08/26 08:07:25;;;;;;;32.80;30.80;;;;;;;18.13;100.00;102209.78;1971909;73;31475;-70
2021/08/26 08:12:51;;;;;;;32.50;30.53;;;;;;;18.36;100.00;102205.20;1971872;73;31400;-71
2021/08/26 08:18:16;;;;;;;30.07;28.17;;;;;;;18.52;100.00;102208.06;1971878;73;31017;-74
2021/08/26 08:23:41;;;;;;;30.07;28.27;;;;;;;18.95;100.00;102196.11;1971670;72;31030;-71
2021/08/26 08:29:06;;;;;;;33.77;31.90;;;;;;;18.45;100.00;102214.62;1971645;73;30946;-74
2021/08/26 08:34:31;;;;;;;33.40;31.60;;;;;;;18.48;100.00;102205.00;1971802;73;31612;-72
2021/08/26 08:39:55;;;;;;;32.87;31.13;;;;;;;18.33;100.00;102220.73;1971678;73;30922;-75
2021/08/26 08:45:21;;;;;;;30.70;28.83;;;;;;;18.39;100.00;102212.48;1971822;73;30918;-74
2021/08/26 08:50:46;;;;;;;31.27;29.40;;;;;;;18.22;100.00;102212.75;1971860;73;31440;-79
2021/08/26 08:56:12;;;;;;;36.50;34.50;;;;;;;18.35;100.00;102207.20;1971870;73;30938;-80
2021/08/26 09:01:38;;;;;;;37.37;35.17;;;;;;;18.14;100.00;102213.67;1971736;72;30963;-75
2021/08/26 09:07:03;;;;;;;31.63;29.63;;;;;;;18.05;100.00;102220.30;1971693;73;30995;-73
2021/08/26 09:12:52;;;;;;;31.03;28.97;;;;;;;18.19;100.00;102210.80;1971708;73;30937;-74
2021/08/26 09:18:20;;;;;;;31.37;29.23;;;;;;;18.15;100.00;102222.95;1971943;73;31414;-76
2021/08/26 09:23:59;;;;;;;27.33;25.73;;;;;;;18.20;100.00;102218.11;1971709;73;31013;-75
2021/08/26 09:29:25;;;;;;;26.73;25.10;;;;;;;18.46;100.00;102223.34;1971937;73;31079;-75
2021/08/26 09:34:49;;;;;;;24.90;23.30;;;;;;;18.82;100.00;102221.67;1971795;73;31035;-78
2021/08/26 09:40:16;;;;;;;24.63;23.10;;;;;;;18.90;100.00;102222.94;1971760;73;30980;-74
2021/08/26 09:45:50;;;;;;;23.23;21.97;;;;;;;19.02;100.00;102225.53;1971528;73;31086;-75
2021/08/26 09:51:21;;;;;;;26.30;24.67;;;;;;;19.42;100.00;102228.75;1971683;73;31488;-75
2021/08/26 09:56:46;;;;;;;24.70;23.13;;;;;;;19.43;100.00;102218.58;1971531;73;31097;-75
2021/08/26 10:02:12;;;;;;;24.73;22.80;;;;;;;19.16;100.00;102225.58;1971761;73;31446;-81
2021/08/26 10:07:39;;;;;;;26.33;24.47;;;;;;;19.01;100.00;102225.83;1971633;73;30959;-75
2021/08/26 10:13:05;;;;;;;24.00;22.40;;;;;;;19.32;100.00;102221.31;1971636;73;31486;-75
2021/08/26 10:18:50;;;;;;;24.87;23.20;;;;;;;19.21;100.00;102217.60;2015669;71;30946;-78
2021/08/26 10:24:16;;;;;;;24.63;22.83;;;;;;;19.12;100.00;102217.48;1971496;73;30971;-79
2021/08/26 10:29:46;;;;;;;25.93;24.33;;;;;;;19.38;100.00;102206.56;1971495;73;30956;-77
2021/08/26 10:35:21;;;;;;;24.93;23.53;;;;;;;19.35;100.00;102212.23;1971502;73;31074;-74
2021/08/26 10:40:45;;;;;;;26.03;24.20;;;;;;;19.00;100.00;102205.28;1971481;73;30956;-74
2021/08/26 10:46:51;;;;;;;25.97;24.03;;;;;;;19.30;100.00;102207.25;1971511;73;31066;-74
2021/08/26 10:52:20;;;;;;;26.00;24.30;;;;;;;19.16;100.00;102207.27;1971747;73;30972;-73
2021/08/26 10:54:56;;;;;;;24.00;22.47;;;;;;;19.16;100.00;102228.39;1931055;74;24307;-73
2021/08/26 11:00:43;;;;;;;24.43;23.03;;;;;;;19.68;100.00;102216.42;1971590;73;31024;-79
2021/08/26 11:06:35;;;;;;;22.47;21.17;;;;;;;19.49;100.00;102220.73;1971535;73;31047;-74
2021/08/26 11:12:30;;;;;;;21.07;19.87;;;;;;;19.37;100.00;102217.00;1972158;73;31456;-81
2021/08/26 11:17:56;;;;;;;21.00;19.70;;;;;;;19.52;100.00;102220.10;1971475;73;30956;-75
2021/08/26 11:23:47;;;;;;;23.27;21.97;;;;;;;19.30;100.00;102222.19;1971676;73;31514;-75
2021/08/26 11:29:39;;;;;;;20.67;19.57;;;;;;;19.67;100.00;102204.30;1971555;73;31044;-75
2021/08/26 11:35:06;;;;;;;21.57;20.13;;;;;;;19.76;100.00;102208.06;1971567;73;31022;-78
2021/08/26 11:40:31;;;;;;;22.17;20.77;;;;;;;19.73;100.00;102212.06;1971505;73;30966;-78
2021/08/26 11:45:57;;;;;;;22.30;20.90;;;;;;;19.57;100.00;102209.30;1971605;73;33368;-78
2021/08/26 11:51:40;;;;;;;19.83;18.73;;;;;;;19.85;100.00;102201.11;1971459;73;31043;-75
2021/08/26 11:57:16;;;;;;;19.80;18.50;;;;;;;19.86;100.00;102208.39;1971467;73;31027;-78
2021/08/26 12:02:41;;;;;;;22.13;20.67;;;;;;;19.91;100.00;102202.65;1971689;73;31017;-75
2021/08/26 12:08:09;;;;;;;22.57;21.30;;;;;;;19.86;100.00;102209.80;1971703;73;30979;-78
2021/08/26 12:13:36;;;;;;;21.50;20.10;;;;;;;19.70;100.00;102212.13;1971611;73;33575;-77
2021/08/26 12:19:03;;;;;;;23.90;22.30;;;;;;;19.86;100.00;102212.05;1971586;73;33447;-74
2021/08/26 12:24:26;;;;;;;20.37;19.20;;;;;;;20.09;100.00;102207.91;1971601;73;31027;-73
2021/08/26 12:29:51;;;;;;;21.10;20.03;;;;;;;19.88;100.00;102209.77;1971564;73;30999;-73
2021/08/26 12:35:27;;;;;;;19.90;18.60;;;;;;;20.15;100.00;102220.75;1971512;72;33061;-74
2021/08/26 12:40:57;;;;;;;19.63;18.40;;;;;;;20.43;100.00;102208.25;1971488;73;31058;-73
2021/08/26 12:46:35;;;;;;;19.80;18.53;;;;;;;20.33;100.00;102206.50;1971503;73;30987;-75
2021/08/26 12:52:04;;;;;;;19.00;17.93;;;;;;;20.51;100.00;102202.42;1971526;73;31039;-75
2021/08/26 12:57:32;;;;;;;17.60;16.60;;;;;;;20.43;100.00;102204.02;1971575;73;31037;-74
2021/08/26 13:02:57;;;;;;;18.23;17.13;;;;;;;20.14;100.00;102206.37;1971517;72;30965;-76
2021/08/26 13:08:22;;;;;;;16.40;15.60;;;;;;;20.21;100.00;102193.50;1971533;73;31075;-79
2021/08/26 13:13:54;;;;;;;17.73;16.83;;;;;;;20.27;100.00;102199.87;1971725;73;31455;-78
2021/08/26 13:19:19;;;;;;;17.70;16.90;;;;;;;20.06;100.00;102197.26;1971485;73;30971;-78
2021/08/26 13:24:44;;;;;;;18.13;17.23;;;;;;;20.35;100.00;102204.78;1971647;73;31194;-78
2021/08/26 13:30:12;;;;;;;17.13;16.13;;;;;;;20.27;100.00;102195.06;1971512;73;30977;-74
2021/08/26 13:35:37;;;;;;;16.63;15.73;;;;;;;20.54;100.00;102196.16;1971499;73;31035;-74
2021/08/26 13:41:02;;;;;;;17.53;16.63;;;;;;;20.03;100.00;102193.64;1971626;73;30985;-78
2021/08/26 13:46:26;;;;;;;19.40;18.20;;;;;;;19.87;100.00;102195.97;1971730;73;31605;-75
2021/08/26 13:51:54;;;;;;;18.23;17.33;;;;;;;19.80;100.00;102194.16;1971586;73;33473;-78
2021/08/26 13:57:20;;;;;;;17.80;16.70;;;;;;;19.86;100.00;102183.85;1971515;73;31065;-75
2021/08/26 14:02:44;;;;;;;17.87;16.87;;;;;;;20.00;100.00;102174.80;1971758;73;30969;-75
2021/08/26 14:08:09;;;;;;;17.80;16.80;;;;;;;19.94;100.00;102179.44;1971577;73;31518;-78
2021/08/26 14:13:34;;;;;;;19.00;18.10;;;;;;;19.96;100.00;102178.56;1971530;73;31012;-75
2021/08/26 14:18:58;;;;;;;18.83;17.73;;;;;;;19.99;100.00;102170.30;1971613;72;31076;-74
2021/08/26 14:24:23;;;;;;;16.83;16.03;;;;;;;19.98;100.00;102165.00;1971539;73;31060;-78
2021/08/26 14:29:47;;;;;;;17.53;16.40;;;;;;;19.90;100.00;102161.48;1971658;73;31564;-70
2021/08/26 14:35:12;;;;;;;16.97;16.03;;;;;;;19.96;100.00;102155.44;1971512;73;31015;-69
2021/08/26 14:40:37;;;;;;;16.70;15.73;;;;;;;19.92;100.00;102151.58;1971694;73;31501;-73
2021/08/26 14:46:03;;;;;;;15.80;14.90;;;;;;;19.96;100.00;102152.61;1971731;73;31042;-69
2021/08/26 14:51:28;;;;;;;15.30;14.50;;;;;;;20.18;100.00;102144.77;1971456;73;32993;-72
2021/08/26 14:56:53;;;;;;;15.27;14.23;;;;;;;20.16;100.00;102143.40;1971559;73;31032;-73
2021/08/26 15:02:18;;;;;;;17.43;16.50;;;;;;;20.13;100.00;102145.45;1971802;73;31527;-72
2021/08/26 15:07:50;;;;;;;17.43;16.60;;;;;;;20.24;100.00;102140.65;1971584;73;31017;-69
2021/08/26 15:13:14;;;;;;;16.93;15.83;;;;;;;20.20;100.00;102142.44;1971811;73;31514;-72
2021/08/26 15:18:39;;;;;;;18.00;17.20;;;;;;;20.14;100.00;102133.02;1971892;73;31425;-72
2021/08/26 15:24:05;;;;;;;17.97;17.07;;;;;;;20.30;100.00;102125.30;1971731;73;31043;-71
2021/08/26 15:29:29;;;;;;;17.93;17.10;;;;;;;20.14;100.00;102120.33;1971845;73;31034;-74
2021/08/26 15:34:55;;;;;;;17.83;16.77;;;;;;;20.13;100.00;102127.95;1971488;73;31071;-68
2021/08/26 15:40:22;;;;;;;17.40;16.30;;;;;;;19.93;100.00;102118.57;1971500;73;31125;-68
2021/08/26 15:45:48;;;;;;;17.50;16.50;;;;;;;19.97;100.00;102111.98;1971614;73;31025;-69
2021/08/26 15:51:12;;;;;;;15.60;14.80;;;;;;;20.09;100.00;102108.59;1971808;73;33399;-74
2021/08/26 15:56:42;;;;;;;17.57;16.60;;;;;;;20.19;100.00;102093.41;1971476;73;30982;-73
2021/08/26 16:02:07;;;;;;;15.77;14.87;;;;;;;20.13;100.00;102102.56;1971679;73;31427;-73
2021/08/26 16:07:30;;;;;;;14.07;13.27;;;;;;;19.79;100.00;102103.66;1971686;73;30978;-71
2021/08/26 16:12:56;;;;;;;14.27;13.60;;;;;;;19.77;100.00;102099.73;1971524;73;31032;-73
2021/08/26 16:18:21;;;;;;;13.47;12.70;;;;;;;19.78;100.00;102105.64;1971572;73;31049;-73
2021/08/26 16:23:46;;;;;;;14.27;13.47;;;;;;;19.53;100.00;102108.46;1971578;73;31044;-73
2021/08/26 16:29:11;;;;;;;16.23;15.43;;;;;;;19.49;100.00;102107.42;1971732;73;31020;-73
2021/08/26 16:34:36;;;;;;;16.83;15.83;;;;;;;19.52;100.00;102107.36;1971532;73;31049;-70
2021/08/26 16:40:05;;;;;;;14.37;13.47;;;;;;;19.57;100.00;102100.20;1971682;73;31087;-75
2021/08/26 16:45:31;;;;;;;16.00;14.87;;;;;;;19.66;100.00;102108.18;1971515;73;31046;-72
2021/08/26 16:51:16;;;;;;;16.70;15.50;;;;;;;19.63;100.00;102108.82;2015890;71;30863;-73
2021/08/26 16:56:40;;;;;;;15.10;14.40;;;;;;;19.53;100.00;102119.73;1971584;73;31030;-73
2021/08/26 17:02:05;;;;;;;15.35;14.60;;;;;;;19.49;100.00;102108.00;1967810;72;30969;-73
2021/08/26 17:07:31;;;;;;;16.07;15.07;;;;;;;19.52;100.00;102105.38;1971584;73;31028;-72
2021/08/26 17:12:56;;;;;;;17.17;16.07;;;;;;;19.48;100.00;102117.59;1971660;73;31461;-74
2021/08/26 17:18:21;;;;;;;16.43;15.53;;;;;;;19.40;100.00;102123.37;1971544;73;30985;-75
2021/08/26 17:23:45;;;;;;;15.97;15.07;;;;;;;19.23;100.00;102122.33;1971807;72;31092;-74
2021/08/26 17:29:10;;;;;;;17.20;16.17;;;;;;;19.20;100.00;102120.98;1971521;73;30972;-75
2021/08/26 17:34:36;;;;;;;16.57;15.37;;;;;;;19.29;100.00;102121.09;1971676;73;33438;-74
2021/08/26 17:40:01;;;;;;;16.07;15.17;;;;;;;19.24;100.00;102127.66;1971679;73;30982;-74
2021/08/26 17:45:29;;;;;;;15.73;14.83;;;;;;;19.17;100.00;102125.00;1971694;73;30987;-74
2021/08/26 17:50:54;;;;;;;16.57;15.53;;;;;;;18.96;100.00;102126.78;1971735;73;31557;-72
2021/08/26 17:56:19;;;;;;;16.20;15.10;;;;;;;18.93;100.00;102116.15;1971657;73;31053;-71
2021/08/26 18:01:45;;;;;;;17.43;16.33;;;;;;;18.88;100.00;102131.73;1971702;73;31083;-72
2021/08/26 18:07:10;;;;;;;17.87;16.33;;;;;;;18.79;100.00;102127.11;1971591;73;30999;-73
2021/08/26 18:12:34;;;;;;;19.10;17.57;;;;;;;18.83;100.00;102126.19;1971491;73;30962;-72
2021/08/26 18:18:01;;;;;;;18.63;17.53;;;;;;;18.64;100.00;102136.69;1971638;73;31062;-72
2021/08/26 18:23:27;;;;;;;18.30;17.30;;;;;;;18.62;100.00;102142.61;1971549;73;31052;-71
2021/08/26 18:28:52;;;;;;;18.13;16.90;;;;;;;18.64;100.00;102141.75;1971764;73;31490;-73
2021/08/26 18:34:17;;;;;;;18.93;17.77;;;;;;;18.54;100.00;102145.30;1972263;73;30970;-78
2021/08/26 18:39:42;;;;;;;18.10;17.00;;;;;;;18.64;100.00;102140.91;1971489;73;31473;-73
2021/08/26 18:45:08;;;;;;;18.73;17.43;;;;;;;18.64;100.00;102145.13;1971690;73;31458;-72
2021/08/26 18:50:33;;;;;;;18.80;17.40;;;;;;;18.50;100.00;102149.27;1971492;73;31042;-71
2021/08/26 18:55:57;;;;;;;18.50;17.40;;;;;;;18.34;100.00;102158.27;1971610;73;31064;-70
2021/08/26 19:01:41;;;;;;;18.83;17.70;;;;;;;18.38;100.00;102148.07;2015831;71;30910;-72
2021/08/26 19:07:07;;;;;;;19.27;17.97;;;;;;;18.34;100.00;102154.89;1971629;73;31090;-76
2021/08/26 19:12:32;;;;;;;20.40;18.73;;;;;;;18.30;100.00;102160.02;1971474;73;31064;-75
2021/08/26 19:17:57;;;;;;;21.07;19.67;;;;;;;18.31;100.00;102161.13;1971737;73;33471;-73
2021/08/26 19:23:22;;;;;;;21.90;20.30;;;;;;;18.35;100.00;102157.13;1971654;73;31561;-73
2021/08/26 19:28:46;;;;;;;22.83;20.90;;;;;;;18.30;100.00;102162.83;1971680;73;31480;-73
2021/08/26 19:34:17;;;;;;;21.17;19.67;;;;;;;18.19;100.00;102173.39;1971776;73;31580;-71
2021/08/26 19:39:42;;;;;;;20.57;19.17;;;;;;;18.22;100.00;102180.41;1971486;73;32980;-73
2021/08/26 19:45:09;;;;;;;20.10;18.63;;;;;;;18.23;100.00;102173.05;1971558;73;31018;-75
2021/08/26 19:50:34;;;;;;;19.80;18.30;;;;;;;18.22;100.00;102197.28;1971609;73;31031;-73
2021/08/26 19:55:59;;;;;;;20.77;19.37;;;;;;;18.08;100.00;102192.98;1971558;73;30964;-72
2021/08/26 20:01:24;;;;;;;21.57;20.00;;;;;;;17.93;100.00;102198.23;1971621;73;31039;-72
2021/08/26 20:06:49;;;;;;;22.37;20.77;;;;;;;17.81;100.00;102206.27;1971691;73;30985;-72
2021/08/26 20:12:13;;;;;;;21.37;19.57;;;;;;;17.78;100.00;102210.26;1971889;73;30981;-74
2021/08/26 20:17:41;;;;;;;21.60;20.23;;;;;;;17.84;100.00;102213.28;1971637;73;31174;-74
2021/08/26 20:23:07;;;;;;;20.77;19.33;;;;;;;17.87;100.00;102219.14;1971708;73;31029;-74
2021/08/26 20:28:31;;;;;;;19.93;18.47;;;;;;;17.91;100.00;102217.39;1971481;73;31071;-73
2021/08/26 20:33:56;;;;;;;20.57;19.03;;;;;;;17.91;100.00;102227.80;1971625;73;30997;-72
2021/08/26 20:39:21;;;;;;;19.77;18.67;;;;;;;17.80;100.00;102230.48;1971672;73;31522;-72
2021/08/26 20:44:45;;;;;;;19.37;18.17;;;;;;;17.82;100.00;102228.20;1971747;73;33430;-70
2021/08/26 20:50:12;;;;;;;20.50;19.10;;;;;;;17.79;100.00;102228.80;1971736;73;31477;-71
2021/08/26 20:55:36;;;;;;;19.30;17.90;;;;;;;17.81;100.00;102237.76;1971500;73;30960;-72
2021/08/26 21:01:01;;;;;;;18.40;17.20;;;;;;;17.74;100.00;102236.16;1971746;73;31444;-69
2021/08/26 21:06:25;;;;;;;19.50;17.90;;;;;;;17.70;100.00;102230.88;1971683;73;33411;-72
2021/08/26 21:11:50;;;;;;;19.73;18.30;;;;;;;17.62;100.00;102237.72;1971474;73;31000;-69
2021/08/26 21:17:15;;;;;;;18.23;17.07;;;;;;;17.57;100.00;102240.55;1971634;73;30980;-70
2021/08/26 21:22:39;;;;;;;19.00;17.80;;;;;;;17.50;100.00;102241.48;1971700;73;31508;-71
2021/08/26 21:28:06;;;;;;;19.43;17.90;;;;;;;17.38;100.00;102246.66;1971790;73;31526;-73
2021/08/26 21:33:31;;;;;;;18.73;17.63;;;;;;;17.33;100.00;102249.54;1971766;73;31449;-72
2021/08/26 21:38:55;;;;;;;19.97;18.50;;;;;;;17.36;100.00;102244.73;1971667;73;30984;-71
2021/08/26 21:44:20;;;;;;;20.33;19.13;;;;;;;17.26;100.00;102252.68;1971815;73;31573;-73
2021/08/26 21:49:44;;;;;;;20.17;18.63;;;;;;;17.22;100.00;102251.60;1971607;73;33300;-72
2021/08/26 21:55:09;;;;;;;20.27;19.13;;;;;;;17.26;100.00;102251.28;1971700;73;31451;-71
2021/08/26 22:00:35;;;;;;;19.90;18.60;;;;;;;17.21;100.00;102251.33;1971641;73;31057;-70
2021/08/26 22:06:03;;;;;;;19.73;18.40;;;;;;;17.00;100.00;102253.48;1971642;73;32990;-72
2021/08/26 22:11:28;;;;;;;18.83;17.63;;;;;;;17.06;100.00;102252.89;1971622;73;33026;-70
2021/08/26 22:16:53;;;;;;;19.60;18.50;;;;;;;17.02;100.00;102265.27;1971569;73;32924;-69
2021/08/26 22:22:17;;;;;;;20.00;18.57;;;;;;;17.07;100.00;102262.99;1971687;73;31512;-70
2021/08/26 22:27:43;;;;;;;17.97;16.83;;;;;;;17.14;100.00;102267.13;1971665;73;31568;-70
2021/08/26 22:33:11;;;;;;;18.33;17.23;;;;;;;17.04;100.00;102271.42;1971753;73;33428;-70
2021/08/26 22:38:36;;;;;;;18.73;17.53;;;;;;;17.07;100.00;102269.41;1971514;73;31056;-71
2021/08/26 22:44:03;;;;;;;17.80;16.80;;;;;;;16.97;100.00;102263.91;1971685;73;33011;-71
2021/08/26 22:49:27;;;;;;;18.03;16.93;;;;;;;17.07;100.00;102265.20;1971723;73;33015;-70
2021/08/26 22:54:53;;;;;;;19.47;18.27;;;;;;;17.02;100.00;102261.63;1971559;73;32934;-70
2021/08/26 23:00:18;;;;;;;17.83;16.87;;;;;;;16.94;100.00;102256.09;1971638;73;31452;-70
2021/08/26 23:05:43;;;;;;;19.17;18.20;;;;;;;16.81;100.00;102273.59;1971704;73;33046;-71
2021/08/26 23:11:08;;;;;;;18.77;17.60;;;;;;;16.92;100.00;102265.91;1971494;73;33007;-70
2021/08/26 23:16:33;;;;;;;19.17;18.07;;;;;;;16.85;100.00;102260.66;1971556;73;33012;-70
2021/08/26 23:22:04;;;;;;;19.53;18.53;;;;;;;16.72;100.00;102266.36;1963910;71;31041;-71
2021/08/26 23:27:29;;;;;;;21.00;19.77;;;;;;;16.84;100.00;102265.98;1971727;73;31495;-70
2021/08/26 23:32:53;;;;;;;20.93;19.73;;;;;;;16.76;100.00;102268.86;1971595;73;31035;-70
2021/08/26 23:38:18;;;;;;;21.60;20.30;;;;;;;16.56;100.00;102254.92;1971828;73;33438;-70
2021/08/26 23:43:43;;;;;;;22.47;21.03;;;;;;;16.59;100.00;102265.62;1971598;73;32896;-71
2021/08/26 23:49:07;;;;;;;23.60;22.00;;;;;;;16.55;100.00;102264.49;1971657;72;32925;-71
2021/08/26 23:54:38;;;;;;;24.30;22.80;;;;;;;16.51;100.00;102265.36;1971547;73;31022;-71
